Allerte
Precipitazioni in corso 

Alghero
Torino
Plateau Rosa

Allerta Gelo (░C)  

Nessuna

Allerta Vento (km/h)  

Lampedusa
40.7/N

Scarsa VisibilitÓ (m) 

Plateau Rosa
100

Allerta Caldo (░C)  

Nessuna

Allerta Afa (░C-UR)  

Nessuna

Dati e Grafici Climatici 3-7 gg
L'OMTeA propone un elaborazione dei più importanti parametri meteorologici rilevati dalle stazioni che hanno aderito al progetto di monitoraggio. In questa sezione è possibile consultare i dati provenienti dalle centraline, interpretati attraverso output testuale e grafico.
Se vuoi aderire alla rete OMTeA vai alla pagina Info e leggi requisiti e vantaggi.

Stazione di Pomezia - www.pomeziameteo.it

Valori rilevati il 20/01/2018 alle ore 19:45

Temperatura atmosferica: 11.2 °C
Pressione atmosferica: 1010.9 mbar
Umidità relativa: 77 %
Intensità e direzione vento: 1.6 Km/h da SSO

Altitudine: 108 metri s.l.m.
Latitudine: 41.41° N
Longitudine: 12.30° E



Entra nella rete OMTeA!. Potrai liberamente usare sul tuo sito questi grafici; info alla pagina Istruzioni.

Ultime 50 rilevazioni
Orario Temp
°C
Rugiada
°C
Prec.
mm
Press.
mbar
Umidità
%
Int. vento
km/h
Dir.
vento
19:45 - 20/01 11.2 7.3 0 1010.90 77 1.6 SSO
19:30 - 20/01 11.3 7.6 0 1011.30 78 1.6 SO
19:15 - 20/01 11.4 7.7 0 1011.50 78 0 --
19:00 - 20/01 11.7 7.8 0 1011.40 77 0 --
18:46 - 20/01 11.7 7.8 0 1011.40 77 4.8 O
18:30 - 20/01 11.6 7.9 0 1011.60 78 0 --
18:15 - 20/01 11.7 8.2 0 1011.60 79 0 --
18:00 - 20/01 11.8 8.3 0 1011.60 79 0 --
17:45 - 20/01 12.1 8.6 0 1011.70 79 0 --
17:30 - 20/01 12.3 8.4 0 1011.70 77 4.8 NE
17:15 - 20/01 12.7 8.6 0 1011.70 76 0 --
17:00 - 20/01 13.1 8.4 0 1011.70 73 1.6 SO
16:45 - 20/01 14.0 8.2 0 1011.60 68 4.8 NO
16:31 - 20/01 14.2 7.3 0 1011.60 63 0 --
16:15 - 20/01 14.4 7.7 0 1011.60 64 1.6 N
16:00 - 20/01 14.5 8.0 0 1011.40 65 1.6 OSO
15:45 - 20/01 14.4 8.1 0 1011.40 66 0 --
15:30 - 20/01 14.6 8.3 0 1011.40 66 4.8 O
15:13 - 20/01 14.9 8.8 0 1011.50 67 1.6 NE
14:59 - 20/01 15.0 8.7 0 1011.40 66 3.2 NNO
14:39 - 20/01 15.0 7.0 0 1011.40 59 11.3 NO
14:30 - 20/01 14.8 7.6 0 1011.30 62 4.8 N
14:15 - 20/01 14.4 7.0 0 1011.40 61 4.8 NO
14:00 - 20/01 14.6 7.9 0 1011.60 64 8.0 NNO
13:45 - 20/01 14.4 8.3 0 1011.70 67 4.8 NNO
13:30 - 20/01 14.3 8.5 0 1011.80 68 8.0 NO
13:15 - 20/01 14.3 8.9 0 1011.80 70 12.9 NNO
13:00 - 20/01 14.1 8.9 0 1011.80 71 8.0 NO
12:45 - 20/01 14.2 9.4 0 1012.00 73 1.6 O
12:30 - 20/01 13.8 9.0 0 1012.20 73 1.6 O
12:15 - 20/01 13.5 9.0 0 1012.40 74 6.4 NO
12:01 - 20/01 13.3 9.0 0 1012.50 75 6.4 NO
11:45 - 20/01 13.2 9.1 0 1012.60 76 6.4 NO
11:30 - 20/01 13.0 9.1 0 1012.80 77 1.6 OSO
11:15 - 20/01 12.9 9.0 0 1012.90 77 16.1 NO
11:00 - 20/01 12.6 9.6 0 1013.10 82 4.8 NO
10:44 - 20/01 12.2 9.8 0 1013.10 85 4.8 N
10:30 - 20/01 11.7 9.4 0 1013.00 86 8.0 N
10:15 - 20/01 11.5 9.6 0 1012.90 88 8.0 NO
10:00 - 20/01 11.0 9.3 0 1012.80 89 3.2 N
09:45 - 20/01 10.5 8.8 0 1012.70 89 9.7 NO
09:30 - 20/01 10.2 8.6 0 1012.80 90 6.4 NO
09:15 - 20/01 9.8 8.2 0 1012.70 90 4.8 NO
09:00 - 20/01 9.4 8.0 0 1012.50 91 8.0 NO
08:45 - 20/01 9.2 7.8 0 1012.30 91 6.4 NO
08:30 - 20/01 9.0 7.8 0 1012.00 92 3.2 ONO
08:15 - 20/01 8.8 7.6 0 1011.90 92 3.2 NO
08:01 - 20/01 8.6 7.4 0 1011.90 92 0 --
07:45 - 20/01 8.5 7.3 0 1011.80 92 8.0 NO
07:30 - 20/01 8.6 7.4 0 1011.70 92 8.0 NO


   In caso di mancato funzionamento di qualche risorsa, vi preghiamo di segnalarcelo alla pagina Contatti.
© 2018 Osservatorio Meteo OMTeA
Sito di informazione su Meteo, Tempo in atto e Clima in Italia